Time;durP1;ratioP1;P1;durP2;ratioP2;P2;SDS_P1;SDS_P2;PMS_P1;PMS_P2;Temp;Humidity;BMP_temperature;BMP_pressure;BME280_temperature;BME280_humidity;BME280_pressure;Samples;Min_cycle;Max_cycle;Signal;HPM_P1;HPM_P2
2024/01/26 18:44:23;;;;;;;17.60;2.28;;;;;;;7.02;89.64;102218.66;8347786;27;20785;-55
2024/01/26 18:48:24;;;;;;;22.23;1.73;;;;;;;7.12;88.33;102222.66;8309397;28;76509;-56
2024/01/26 18:52:25;;;;;;;18.52;2.67;;;;;;;7.18;87.60;102229.53;8306923;28;20108;-55
2024/01/26 18:56:26;;;;;;;13.27;2.63;;;;;;;7.14;86.84;102242.25;8311186;28;20034;-57
2024/01/26 19:00:27;;;;;;;15.23;2.45;;;;;;;7.09;86.63;102236.25;8311736;28;20034;-59
2024/01/26 19:04:27;;;;;;;23.30;3.92;;;;;;;7.15;85.65;102245.81;8311848;28;20040;-59
2024/01/26 19:08:28;;;;;;;20.65;2.28;;;;;;;7.04;87.33;102258.91;8309292;28;20508;-59
2024/01/26 19:12:28;;;;;;;16.92;2.47;;;;;;;7.04;87.42;102265.19;8310843;28;20037;-57
2024/01/26 19:16:32;;;;;;;16.60;2.33;;;;;;;7.01;87.02;102270.69;8312010;28;20065;-54
2024/01/26 19:20:32;;;;;;;13.23;3.33;;;;;;;7.11;87.75;102282.75;8310946;28;20451;-55
2024/01/26 19:24:33;;;;;;;14.52;3.70;;;;;;;7.04;86.97;102281.31;8312239;28;20041;-55
2024/01/26 19:28:33;;;;;;;18.08;4.30;;;;;;;6.95;88.11;102287.13;8311663;28;20045;-54
2024/01/26 19:32:34;;;;;;;20.83;6.00;;;;;;;7.03;89.10;102287.66;8305801;28;20512;-54
2024/01/26 19:36:35;;;;;;;17.73;5.72;;;;;;;6.95;88.31;102287.13;8310827;28;20053;-55
2024/01/26 19:40:35;;;;;;;9.98;2.55;;;;;;;6.83;88.24;102293.09;8310031;28;20045;-54
2024/01/26 19:44:35;;;;;;;21.25;3.53;;;;;;;6.83;88.33;102298.47;8312072;28;20435;-55
2024/01/26 19:48:36;;;;;;;23.38;3.55;;;;;;;6.69;88.37;102295.59;8310916;28;20435;-55
2024/01/26 19:52:39;;;;;;;17.35;2.60;;;;;;;6.66;88.43;102317.22;8306323;28;20053;-56
2024/01/26 19:56:40;;;;;;;18.73;3.27;;;;;;;6.66;88.54;102327.09;8292770;28;20052;-55
2024/01/26 20:00:40;;;;;;;17.02;3.30;;;;;;;6.35;90.87;102329.47;8288615;28;20564;-56
2024/01/26 20:04:41;;;;;;;24.52;3.28;;;;;;;6.27;92.31;102334.28;8288285;28;20046;-56
2024/01/26 20:08:43;;;;;;;18.40;3.58;;;;;;;6.07;93.09;102353.97;8288103;28;20129;-56
2024/01/26 20:12:43;;;;;;;15.10;4.75;;;;;;;5.92;94.13;102355.50;8288008;28;20578;-56
2024/01/26 20:16:44;;;;;;;28.58;4.30;;;;;;;6.03;94.85;102360.41;8283929;28;20519;-56
2024/01/26 20:20:45;;;;;;;17.27;3.05;;;;;;;5.94;95.59;102364.38;8285446;28;20116;-56
2024/01/26 20:24:46;;;;;;;20.83;3.17;;;;;;;5.89;95.99;102376.28;8288664;28;20050;-55
2024/01/26 20:28:47;;;;;;;21.95;3.47;;;;;;;5.90;97.58;102373.53;8288644;28;20037;-55
2024/01/26 20:32:47;;;;;;;16.08;2.95;;;;;;;5.98;97.92;102378.56;8285968;28;20034;-57
2024/01/26 20:36:48;;;;;;;21.77;3.55;;;;;;;5.90;96.95;102372.63;8284454;28;20100;-56
2024/01/26 20:40:48;;;;;;;14.07;3.38;;;;;;;5.92;98.15;102377.00;8281432;28;20323;-57
2024/01/26 20:44:49;;;;;;;20.13;2.83;;;;;;;5.97;97.71;102374.13;8287920;28;20046;-57
2024/01/26 20:48:49;;;;;;;12.70;3.60;;;;;;;5.81;96.68;102378.38;8287822;28;20315;-54
2024/01/26 20:52:50;;;;;;;23.38;3.78;;;;;;;5.87;97.76;102378.13;8282206;28;20127;-57
2024/01/26 20:56:50;;;;;;;22.65;3.80;;;;;;;5.82;98.15;102383.69;8282456;28;20034;-56
2024/01/26 21:00:51;;;;;;;19.30;4.18;;;;;;;5.78;97.15;102383.88;8280599;28;20048;-56
2024/01/26 21:04:51;;;;;;;17.98;4.53;;;;;;;5.71;96.02;102393.13;8285635;28;20046;-55
2024/01/26 21:08:52;;;;;;;18.15;4.22;;;;;;;5.67;95.88;102386.09;8282267;28;20038;-55
2024/01/26 21:12:55;;;;;;;31.67;5.88;;;;;;;5.72;95.18;102394.84;8288757;28;20041;-56
2024/01/26 21:16:56;;;;;;;22.65;4.60;;;;;;;5.76;95.72;102396.47;8301638;28;20408;-55
2024/01/26 21:20:57;;;;;;;21.10;5.15;;;;;;;5.69;94.23;102387.81;8285895;28;20104;-55
2024/01/26 21:24:58;;;;;;;20.60;4.38;;;;;;;5.66;94.65;102395.09;8287278;28;20073;-56
2024/01/26 21:28:59;;;;;;;18.55;5.18;;;;;;;5.65;94.81;102393.38;8279916;28;20050;-55
2024/01/26 21:32:59;;;;;;;16.13;5.07;;;;;;;5.67;95.15;102388.78;8278484;28;20045;-56
2024/01/26 21:36:59;;;;;;;20.08;3.90;;;;;;;5.71;94.54;102393.13;8280630;28;20034;-56
2024/01/26 21:41:00;;;;;;;21.83;4.28;;;;;;;5.85;93.83;102388.06;8281237;28;20034;-56
2024/01/26 21:45:01;;;;;;;19.20;3.75;;;;;;;5.95;94.20;102381.38;8284367;28;20065;-56
2024/01/26 21:49:01;;;;;;;19.92;3.63;;;;;;;5.82;92.55;102391.75;8285877;28;20041;-56
2024/01/26 21:53:04;;;;;;;22.98;3.60;;;;;;;5.72;93.45;102389.47;8280938;28;20463;-56
2024/01/26 21:57:05;;;;;;;34.88;4.63;;;;;;;5.71;94.18;102395.81;8286166;28;20038;-56
2024/01/26 22:01:12;;;;;;;21.50;3.80;;;;;;;5.59;94.74;102399.00;8282627;28;20037;-55
2024/01/26 22:05:13;;;;;;;22.83;3.50;;;;;;;5.59;94.46;102407.03;8283400;28;20076;-57
2024/01/26 22:09:15;;;;;;;20.70;3.80;;;;;;;5.65;95.15;102404.94;8279530;28;20045;-57
2024/01/26 22:13:15;;;;;;;26.45;4.20;;;;;;;5.70;95.35;102412.81;8285291;28;20049;-56
2024/01/26 22:17:16;;;;;;;22.13;4.20;;;;;;;5.57;95.44;102411.56;8285237;28;20034;-56
2024/01/26 22:21:18;;;;;;;19.70;4.13;;;;;;;5.60;94.24;102412.34;8275183;28;20048;-54
2024/01/26 22:25:20;;;;;;;26.13;4.32;;;;;;;5.53;94.88;102421.59;8284776;28;20073;-55
2024/01/26 22:29:21;;;;;;;23.90;4.10;;;;;;;5.46;94.04;102413.84;8284760;28;20061;-55
2024/01/26 22:33:24;;;;;;;19.95;3.65;;;;;;;5.60;93.63;102416.81;8285283;28;20574;-56
2024/01/26 22:37:24;;;;;;;14.50;2.50;;;;;;;5.53;92.76;102418.00;8285461;28;20038;-55
2024/01/26 22:41:24;;;;;;;15.00;3.20;;;;;;;5.50;94.64;102410.09;8275588;28;20049;-56
2024/01/26 22:45:25;;;;;;;25.00;3.45;;;;;;;5.38;93.18;102421.31;8285419;28;20124;-55
2024/01/26 22:49:27;;;;;;;27.00;4.15;;;;;;;5.34;93.47;102428.59;8284645;28;20412;-55
2024/01/26 22:53:27;;;;;;;17.20;3.63;;;;;;;5.38;93.39;102432.03;8285039;28;20080;-55
2024/01/26 22:57:27;;;;;;;16.40;3.55;;;;;;;5.37;93.64;102447.25;8285111;28;20042;-57
2024/01/26 23:01:28;;;;;;;21.02;4.13;;;;;;;5.24;94.04;102451.34;8283593;28;20033;-55
2024/01/26 23:05:31;;;;;;;20.67;3.13;;;;;;;5.23;94.38;102454.97;8284506;28;20227;-55
2024/01/26 23:09:33;;;;;;;19.17;3.83;;;;;;;5.01;94.97;102455.84;8283343;28;20417;-56
2024/01/26 23:13:33;;;;;;;14.25;2.85;;;;;;;4.93;95.51;102460.63;8282817;28;20034;-56
2024/01/26 23:17:36;;;;;;;19.08;3.83;;;;;;;4.82;96.71;102454.81;8283122;28;20037;-56
2024/01/26 23:21:36;;;;;;;18.58;3.20;;;;;;;4.86;96.60;102459.09;8284416;28;20408;-55
2024/01/26 23:25:37;;;;;;;25.30;4.00;;;;;;;4.92;96.02;102462.44;8285364;28;20071;-55
2024/01/26 23:29:37;;;;;;;24.73;4.07;;;;;;;4.95;95.72;102469.47;8288831;28;20558;-56
2024/01/26 23:33:38;;;;;;;21.50;3.10;;;;;;;5.02;96.53;102465.63;8291301;28;20038;-54
2024/01/26 23:37:38;;;;;;;14.55;3.00;;;;;;;4.97;95.56;102473.00;8291278;28;20053;-56
2024/01/26 23:41:39;;;;;;;18.73;3.75;;;;;;;4.98;95.23;102469.38;8289962;28;20066;-54
2024/01/26 23:45:39;;;;;;;17.75;4.22;;;;;;;4.88;95.41;102476.88;8290721;28;20092;-56
2024/01/26 23:49:40;;;;;;;20.52;4.30;;;;;;;4.85;96.71;102468.09;8290796;28;20496;-56
2024/01/26 23:53:40;;;;;;;37.70;11.82;;;;;;;4.75;97.08;102472.91;8290732;28;20042;-55
2024/01/26 23:57:41;;;;;;;25.17;8.13;;;;;;;4.47;98.85;102472.16;8291021;28;20353;-56
